Time;durP1;ratioP1;P1;durP2;ratioP2;P2;SDS_P1;SDS_P2;PMS_P1;PMS_P2;Temp;Humidity;BMP_temperature;BMP_pressure;BME280_temperature;BME280_humidity;BME280_pressure;Samples;Min_cycle;Max_cycle;Signal;HPM_P1;HPM_P2
2021/06/27 00:01:35;;;;;;;22.70;20.40;;;18.30;99.90;;;;;;5091670;28;20775;-61
2021/06/27 00:04:03;;;;;;;21.37;18.70;;;18.30;99.90;;;;;;5089492;28;20607;-61
2021/06/27 00:06:30;;;;;;;21.87;19.67;;;18.30;99.90;;;;;;5090152;28;20438;-61
2021/06/27 00:08:57;;;;;;;21.43;19.27;;;18.30;99.90;;;;;;5092597;28;20461;-60
2021/06/27 00:11:24;;;;;;;21.00;19.00;;;18.40;99.90;;;;;;5092379;28;20771;-62
2021/06/27 00:13:51;;;;;;;21.60;19.37;;;18.40;99.90;;;;;;5089160;28;20657;-61
2021/06/27 00:16:20;;;;;;;19.07;17.17;;;18.40;99.90;;;;;;5092264;28;20486;-61
2021/06/27 00:18:48;;;;;;;21.80;18.00;;;18.50;99.90;;;;;;5091190;28;20508;-62
2021/06/27 00:21:15;;;;;;;19.50;17.50;;;18.50;99.90;;;;;;5091239;28;20507;-61
2021/06/27 00:23:46;;;;;;;19.50;17.40;;;18.50;99.90;;;;;;5091507;28;20462;-61
2021/06/27 00:26:15;;;;;;;16.87;15.23;;;18.50;99.90;;;;;;5088359;28;20501;-60
2021/06/27 00:28:43;;;;;;;18.10;16.23;;;18.50;99.90;;;;;;5090897;28;20463;-61
2021/06/27 00:31:10;;;;;;;19.10;17.23;;;18.40;99.90;;;;;;5090737;28;20447;-62
2021/06/27 00:33:38;;;;;;;16.90;15.07;;;18.30;99.90;;;;;;5091251;28;20827;-59
2021/06/27 00:36:06;;;;;;;19.63;17.47;;;18.20;99.90;;;;;;5088268;28;20527;-61
2021/06/27 00:38:34;;;;;;;18.53;15.57;;;18.40;99.90;;;;;;5087636;28;20872;-61
2021/06/27 00:41:03;;;;;;;17.40;15.60;;;18.50;99.90;;;;;;5091698;28;20652;-61
2021/06/27 00:43:31;;;;;;;18.53;16.30;;;18.50;99.90;;;;;;5089453;28;20482;-61
2021/06/27 00:45:59;;;;;;;16.47;14.77;;;18.50;99.90;;;;;;5090985;28;20744;-60
2021/06/27 00:48:27;;;;;;;16.50;14.87;;;18.60;99.90;;;;;;5090151;28;20450;-60
2021/06/27 00:50:57;;;;;;;18.77;16.57;;;18.50;99.90;;;;;;5092142;28;20699;-60
2021/06/27 00:53:25;;;;;;;17.40;15.50;;;18.50;99.90;;;;;;5089449;28;20776;-61
2021/06/27 00:55:56;;;;;;;19.90;17.90;;;18.40;99.90;;;;;;5092739;28;20672;-61
2021/06/27 00:58:28;;;;;;;18.73;16.80;;;18.20;99.90;;;;;;5090022;28;20427;-61
2021/06/27 01:00:56;;;;;;;21.40;16.63;;;17.50;99.90;;;;;;5090075;28;20437;-60
2021/06/27 01:03:24;;;;;;;20.47;15.97;;;18.20;99.90;;;;;;5090033;28;20459;-62
2021/06/27 01:05:51;;;;;;;18.60;16.70;;;18.20;99.90;;;;;;5090099;28;20459;-62
2021/06/27 01:08:19;;;;;;;20.97;18.87;;;18.20;99.90;;;;;;5090384;28;20503;-62
2021/06/27 01:10:48;;;;;;;19.17;17.30;;;18.10;99.90;;;;;;5092072;28;20420;-60
2021/06/27 01:13:21;;;;;;;18.53;16.67;;;18.00;99.90;;;;;;5090178;28;20681;-61
2021/06/27 01:15:49;;;;;;;20.63;17.70;;;17.90;99.90;;;;;;5089137;28;20783;-61
2021/06/27 01:18:17;;;;;;;22.50;19.93;;;17.90;99.90;;;;;;5090277;28;20411;-61
2021/06/27 01:20:44;;;;;;;20.67;18.47;;;17.80;99.90;;;;;;5090641;28;20479;-61
2021/06/27 01:23:14;;;;;;;20.23;18.07;;;17.70;99.90;;;;;;5090346;28;20808;-62
2021/06/27 01:25:45;;;;;;;21.10;18.90;;;17.60;99.90;;;;;;5091578;28;20430;-61
2021/06/27 01:28:13;;;;;;;21.60;19.50;;;17.60;99.90;;;;;;5088969;28;20487;-61
2021/06/27 01:30:42;;;;;;;23.50;20.27;;;17.50;99.90;;;;;;5088242;28;20431;-61
2021/06/27 01:33:15;;;;;;;21.97;19.70;;;17.20;99.90;;;;;;5088984;28;20521;-61
2021/06/27 01:35:43;;;;;;;20.70;18.40;;;17.10;99.90;;;;;;5090003;28;20498;-60
2021/06/27 01:38:13;;;;;;;21.27;19.17;;;17.10;99.90;;;;;;5084632;28;20441;-61
2021/06/27 01:40:40;;;;;;;22.20;19.90;;;17.20;99.90;;;;;;5089257;28;20480;-61
2021/06/27 01:43:16;;;;;;;22.50;18.87;;;17.10;99.90;;;;;;5090390;28;20446;-60
2021/06/27 01:45:49;;;;;;;19.47;17.53;;;17.10;99.90;;;;;;5089762;28;20819;-60
2021/06/27 01:48:16;;;;;;;24.10;20.13;;;17.00;99.90;;;;;;5088599;28;20445;-59
2021/06/27 01:50:47;;;;;;;28.40;20.60;;;17.00;99.90;;;;;;5091586;28;20455;-61
2021/06/27 01:53:16;;;;;;;28.55;20.50;;;17.10;99.90;;;;;;5089168;28;20497;-60
2021/06/27 01:55:44;;;;;;;20.80;18.30;;;17.00;99.90;;;;;;5088936;28;20307;-61
2021/06/27 01:58:12;;;;;;;22.80;20.00;;;17.40;99.90;;;;;;5084747;28;20530;-61
2021/06/27 02:00:39;;;;;;;27.20;20.97;;;17.00;99.90;;;;;;5090970;28;21388;-61
2021/06/27 02:03:06;;;;;;;25.73;20.42;;;17.00;99.90;;;;;;5089290;28;20822;-60
2021/06/27 02:05:34;;;;;;;27.65;19.95;;;16.80;99.90;;;;;;5089571;28;20219;-61
2021/06/27 02:08:01;;;;;;;23.65;19.85;;;16.90;99.90;;;;;;5090140;28;20243;-60
2021/06/27 02:10:29;;;;;;;21.80;19.50;;;16.80;99.90;;;;;;5088595;28;20607;-61
2021/06/27 02:12:59;;;;;;;23.67;21.15;;;16.80;99.90;;;;;;5088275;28;20420;-60
2021/06/27 02:15:27;;;;;;;24.77;20.20;;;16.80;99.90;;;;;;5088940;28;20253;-60
2021/06/27 02:18:02;;;;;;;24.15;20.30;;;16.70;99.90;;;;;;5084848;28;20590;-61
2021/06/27 02:20:30;;;;;;;27.83;21.83;;;16.70;99.90;;;;;;5088433;28;20439;-60
2021/06/27 02:22:57;;;;;;;26.73;22.27;;;16.70;99.90;;;;;;5090129;28;20561;-62
2021/06/27 02:25:24;;;;;;;27.05;22.75;;;16.90;99.90;;;;;;5091045;28;20247;-62
2021/06/27 02:27:53;;;;;;;32.78;23.13;;;16.60;99.90;;;;;;5090111;28;20226;-60
2021/06/27 02:30:21;;;;;;;31.65;23.80;;;16.70;99.90;;;;;;5091103;28;20206;-61
2021/06/27 02:32:49;;;;;;;28.58;22.92;;;16.60;99.90;;;;;;5090872;28;20760;-61
2021/06/27 02:35:16;;;;;;;26.70;23.65;;;16.50;99.90;;;;;;5088697;28;20263;-61
2021/06/27 02:37:43;;;;;;;29.67;22.98;;;16.60;99.90;;;;;;5088163;28;20328;-60
2021/06/27 02:40:11;;;;;;;28.70;23.00;;;16.70;99.90;;;;;;5088892;28;20231;-60
2021/06/27 02:42:39;;;;;;;28.67;21.65;;;16.70;99.90;;;;;;5089119;28;20231;-61
2021/06/27 02:45:08;;;;;;;23.73;21.35;;;16.70;99.90;;;;;;5090366;28;20363;-61
2021/06/27 02:47:36;;;;;;;27.08;22.40;;;16.70;99.90;;;;;;5089491;28;20259;-61
2021/06/27 02:50:06;;;;;;;26.27;21.25;;;16.60;99.90;;;;;;5088809;28;20212;-60
2021/06/27 02:52:34;;;;;;;27.77;21.15;;;16.60;99.90;;;;;;5091431;28;20260;-61
2021/06/27 02:55:02;;;;;;;30.63;22.30;;;16.60;99.90;;;;;;5088493;28;20271;-61
2021/06/27 02:57:29;;;;;;;29.25;21.27;;;16.70;99.90;;;;;;5089046;28;20301;-60
2021/06/27 02:59:56;;;;;;;23.58;20.13;;;16.90;99.90;;;;;;5088362;28;20359;-62
2021/06/27 03:02:23;;;;;;;22.08;19.85;;;16.90;99.90;;;;;;5089410;28;20210;-61
2021/06/27 03:04:50;;;;;;;23.08;19.80;;;16.90;99.90;;;;;;5089688;28;20210;-60
2021/06/27 03:07:17;;;;;;;22.42;19.42;;;16.80;99.90;;;;;;5091287;28;20206;-60
2021/06/27 03:09:44;;;;;;;21.80;19.52;;;16.90;99.90;;;;;;5088918;28;20574;-60
2021/06/27 03:12:12;;;;;;;22.38;16.88;;;17.00;99.90;;;;;;5089445;28;20203;-60
2021/06/27 03:14:39;;;;;;;16.52;14.82;;;17.10;99.90;;;;;;5087744;28;20212;-60
2021/06/27 03:17:06;;;;;;;21.10;17.50;;;17.10;99.90;;;;;;5089542;28;20228;-62
2021/06/27 03:19:33;;;;;;;16.77;15.07;;;17.10;99.90;;;;;;5089525;28;20207;-62
2021/06/27 03:22:00;;;;;;;18.73;15.55;;;17.00;99.90;;;;;;5089633;28;20544;-62
2021/06/27 03:24:27;;;;;;;18.20;15.50;;;17.10;99.90;;;;;;5086843;28;21722;-61
2021/06/27 03:26:56;;;;;;;17.80;15.85;;;17.00;99.90;;;;;;5090509;28;20207;-61
2021/06/27 03:29:23;;;;;;;16.08;14.48;;;17.10;99.90;;;;;;5087670;28;20206;-61
2021/06/27 03:31:50;;;;;;;19.58;15.40;;;17.10;99.90;;;;;;5090113;28;20224;-62
2021/06/27 03:34:17;;;;;;;16.25;14.55;;;16.90;99.90;;;;;;5090176;28;20210;-61
2021/06/27 03:36:44;;;;;;;17.77;15.73;;;17.00;99.90;;;;;;5088674;28;20207;-61
2021/06/27 03:39:15;;;;;;;17.90;14.35;;;17.20;99.90;;;;;;5088829;28;20207;-61
2021/06/27 03:41:49;;;;;;;16.83;15.00;;;17.40;99.90;;;;;;5089510;28;20211;-60
2021/06/27 03:44:16;;;;;;;14.77;13.37;;;17.60;99.90;;;;;;5080008;28;20455;-60
2021/06/27 03:46:43;;;;;;;27.67;15.23;;;17.80;99.90;;;;;;5089897;28;20473;-60
2021/06/27 03:49:10;;;;;;;17.77;12.30;;;18.10;99.90;;;;;;5089383;28;20756;-60
2021/06/27 03:51:38;;;;;;;14.13;12.63;;;18.70;99.90;;;;;;5089700;28;20422;-60
2021/06/27 03:54:05;;;;;;;13.50;11.57;;;19.10;99.90;;;;;;5089578;28;20421;-60
2021/06/27 03:56:32;;;;;;;15.43;12.60;;;19.30;99.90;;;;;;5088773;28;21047;-61
2021/06/27 03:58:59;;;;;;;14.57;10.40;;;19.70;99.90;;;;;;5089315;28;20446;-62
2021/06/27 04:01:26;;;;;;;13.63;12.23;;;20.00;99.90;;;;;;5087677;28;20540;-60
2021/06/27 04:03:54;;;;;;;11.53;10.40;;;19.90;99.90;;;;;;5085458;28;20463;-61
2021/06/27 04:06:21;;;;;;;12.23;10.33;;;20.00;99.90;;;;;;5084157;28;20990;-61
2021/06/27 04:08:48;;;;;;;14.43;10.30;;;19.80;99.90;;;;;;5085962;28;20414;-60
2021/06/27 04:11:15;;;;;;;10.90;9.77;;;19.60;99.90;;;;;;5088873;28;20776;-59
2021/06/27 04:13:42;;;;;;;11.10;10.10;;;19.50;99.90;;;;;;5088500;28;20847;-61
2021/06/27 04:16:09;;;;;;;12.07;10.57;;;19.50;99.90;;;;;;5091328;28;20491;-61
2021/06/27 04:18:38;;;;;;;10.73;9.60;;;19.20;99.90;;;;;;5088006;28;20512;-60
2021/06/27 04:21:07;;;;;;;10.37;9.47;;;19.30;99.90;;;;;;5091710;28;20437;-61
2021/06/27 04:23:37;;;;;;;9.30;8.50;;;19.50;99.90;;;;;;5087843;28;20512;-59
2021/06/27 04:26:05;;;;;;;11.40;9.83;;;19.60;99.90;;;;;;5092305;28;20451;-60
2021/06/27 04:28:32;;;;;;;9.93;8.97;;;19.60;99.90;;;;;;5086875;28;20496;-60
2021/06/27 04:30:59;;;;;;;10.20;9.20;;;19.40;99.90;;;;;;5088429;28;20454;-61
2021/06/27 04:33:27;;;;;;;10.00;9.03;;;19.40;99.90;;;;;;5089863;28;20476;-60
2021/06/27 04:35:53;;;;;;;10.47;9.47;;;19.40;99.90;;;;;;5090021;28;20417;-60
2021/06/27 04:38:23;;;;;;;10.73;9.73;;;19.50;99.90;;;;;;5089987;28;20482;-61
2021/06/27 04:40:51;;;;;;;14.10;10.00;;;19.80;99.90;;;;;;5090006;28;20513;-60
2021/06/27 04:43:18;;;;;;;11.97;10.77;;;19.80;99.90;;;;;;5089368;28;20798;-60
2021/06/27 04:45:45;;;;;;;13.97;10.57;;;19.80;99.90;;;;;;5089446;28;20773;-60
2021/06/27 04:48:13;;;;;;;12.57;11.37;;;19.80;99.90;;;;;;5089868;28;20414;-60
2021/06/27 04:50:40;;;;;;;13.17;11.80;;;19.80;99.90;;;;;;5091425;28;20967;-61
2021/06/27 04:53:12;;;;;;;13.33;11.27;;;19.80;99.90;;;;;;5088653;28;20416;-60
2021/06/27 04:55:40;;;;;;;14.30;10.30;;;19.70;99.90;;;;;;5088465;28;20425;-60
2021/06/27 04:58:07;;;;;;;12.10;10.40;;;19.80;99.90;;;;;;5085346;28;20413;-61
2021/06/27 05:00:34;;;;;;;17.03;10.20;;;19.80;99.90;;;;;;5087627;28;20470;-61
2021/06/27 05:03:01;;;;;;;13.50;9.77;;;19.90;99.90;;;;;;5089334;28;20416;-60
2021/06/27 05:05:29;;;;;;;9.60;8.67;;;19.90;99.90;;;;;;5087911;28;20421;-60
2021/06/27 05:07:56;;;;;;;9.30;8.57;;;19.90;99.90;;;;;;5091210;28;20671;-60
2021/06/27 05:10:23;;;;;;;9.77;8.77;;;20.00;99.90;;;;;;5089206;28;20421;-60
2021/06/27 05:12:51;;;;;;;8.60;7.77;;;20.10;99.90;;;;;;5088496;28;20439;-60
2021/06/27 05:15:18;;;;;;;13.00;8.50;;;20.20;99.90;;;;;;5088086;28;20555;-60
2021/06/27 05:17:45;;;;;;;12.23;8.93;;;20.40;99.90;;;;;;5088910;28;20421;-61
2021/06/27 05:20:13;;;;;;;9.67;8.70;;;20.20;99.90;;;;;;5092711;28;21055;-61
2021/06/27 05:22:40;;;;;;;10.67;8.73;;;20.10;99.90;;;;;;5089455;28;20441;-61
2021/06/27 05:25:08;;;;;;;12.13;9.50;;;20.20;99.90;;;;;;5088574;28;20470;-61
2021/06/27 05:27:35;;;;;;;9.83;8.83;;;20.30;99.90;;;;;;5091814;28;20443;-59
2021/06/27 05:30:05;;;;;;;11.93;10.00;;;20.40;99.90;;;;;;5090210;28;20413;-59
2021/06/27 05:32:35;;;;;;;12.03;9.80;;;20.60;99.90;;;;;;5092062;28;20439;-60
2021/06/27 05:35:06;;;;;;;15.50;9.07;;;20.80;99.90;;;;;;5091540;28;20739;-60
2021/06/27 05:37:33;;;;;;;11.97;10.00;;;21.10;99.90;;;;;;5088622;28;20697;-58
2021/06/27 05:40:01;;;;;;;10.13;9.10;;;20.50;99.90;;;;;;5084639;28;20458;-59
2021/06/27 05:42:28;;;;;;;9.93;8.80;;;21.40;99.90;;;;;;5089904;28;20468;-59
2021/06/27 05:44:55;;;;;;;13.37;10.10;;;21.50;99.90;;;;;;5087620;28;20486;-62
2021/06/27 05:47:22;;;;;;;11.63;10.43;;;21.60;99.90;;;;;;5090942;28;20492;-59
2021/06/27 05:49:49;;;;;;;10.60;9.60;;;21.60;99.90;;;;;;5091430;28;20828;-60
2021/06/27 05:52:16;;;;;;;12.30;11.20;;;21.40;99.90;;;;;;5090888;28;20674;-60
2021/06/27 05:54:43;;;;;;;12.87;11.67;;;21.00;99.90;;;;;;5090070;28;20443;-61
2021/06/27 05:57:11;;;;;;;12.07;10.70;;;21.00;99.90;;;;;;5088997;28;20899;-60
2021/06/27 05:59:38;;;;;;;12.37;11.07;;;21.00;99.90;;;;;;5090487;28;20417;-60
2021/06/27 06:02:05;;;;;;;13.73;10.97;;;21.30;99.90;;;;;;5090961;28;20714;-59
2021/06/27 06:04:32;;;;;;;11.97;10.87;;;21.90;99.90;;;;;;5089943;28;20855;-59
2021/06/27 06:06:59;;;;;;;11.40;10.20;;;22.60;99.90;;;;;;5088792;28;20505;-59
2021/06/27 06:09:26;;;;;;;10.80;9.80;;;24.00;99.90;;;;;;5089759;28;20689;-60
2021/06/27 06:11:53;;;;;;;11.90;10.80;;;23.80;99.90;;;;;;5091035;28;20446;-59
2021/06/27 06:14:20;;;;;;;13.90;12.53;;;24.00;99.90;;;;;;5087438;28;20443;-60
2021/06/27 06:16:47;;;;;;;9.87;9.17;;;23.70;99.90;;;;;;5088734;28;20443;-60
2021/06/27 06:19:18;;;;;;;14.00;10.43;;;23.90;99.90;;;;;;5089785;28;20450;-60
2021/06/27 06:21:48;;;;;;;10.70;9.70;;;24.10;99.90;;;;;;5088538;28;20780;-60
2021/06/27 06:24:17;;;;;;;12.07;11.03;;;24.20;99.90;;;;;;5087917;28;20513;-60
2021/06/27 06:26:45;;;;;;;12.63;10.27;;;24.10;99.90;;;;;;5089613;28;20439;-60
2021/06/27 06:29:12;;;;;;;11.43;10.30;;;24.30;99.90;;;;;;5082714;28;20455;-60
2021/06/27 06:31:39;;;;;;;13.37;12.17;;;25.60;99.90;;;;;;5089479;28;20500;-58
2021/06/27 06:34:07;;;;;;;10.60;9.60;;;26.60;99.90;;;;;;5087884;28;20472;-58
2021/06/27 06:36:35;;;;;;;12.20;11.10;;;26.40;99.90;;;;;;5089731;28;20443;-58
2021/06/27 06:39:04;;;;;;;13.27;12.17;;;25.80;99.90;;;;;;5087715;28;20446;-61
2021/06/27 06:41:31;;;;;;;12.03;11.13;;;25.10;99.90;;;;;;5088623;28;20443;-60
2021/06/27 06:43:58;;;;;;;12.03;11.13;;;25.20;99.90;;;;;;5086299;28;20482;-61
2021/06/27 06:46:26;;;;;;;13.93;12.80;;;25.60;99.90;;;;;;5086966;28;20504;-60
2021/06/27 06:48:56;;;;;;;17.07;15.43;;;26.60;99.90;;;;;;5088212;28;20465;-60
2021/06/27 06:51:26;;;;;;;11.80;10.90;;;28.20;97.90;;;;;;5089053;28;20451;-59
2021/06/27 06:53:54;;;;;;;12.80;11.87;;;29.70;95.20;;;;;;5081343;28;20611;-60
2021/06/27 06:56:21;;;;;;;12.03;11.33;;;30.80;92.70;;;;;;5088654;28;20672;-59
2021/06/27 06:58:48;;;;;;;12.63;11.87;;;31.30;90.20;;;;;;5088316;28;20434;-60
2021/06/27 07:01:17;;;;;;;13.43;12.30;;;32.60;87.00;;;;;;5087492;28;20435;-59
2021/06/27 07:03:45;;;;;;;13.20;12.50;;;33.80;82.10;;;;;;5087068;28;20933;-59
2021/06/27 07:06:13;;;;;;;11.83;10.93;;;34.30;77.70;;;;;;5087227;28;20519;-59
2021/06/27 07:08:40;;;;;;;13.33;12.40;;;35.60;75.00;;;;;;5088890;28;20652;-59
2021/06/27 07:11:07;;;;;;;12.90;12.20;;;36.30;68.40;;;;;;5090246;28;20435;-59
2021/06/27 07:13:34;;;;;;;12.73;12.03;;;37.90;63.30;;;;;;5088498;28;20443;-61
2021/06/27 07:16:01;;;;;;;12.23;11.47;;;38.50;58.50;;;;;;5088539;28;20496;-59
2021/06/27 07:18:28;;;;;;;12.90;12.20;;;37.80;56.90;;;;;;5088635;28;20808;-59
2021/06/27 07:20:55;;;;;;;12.90;12.20;;;37.70;56.60;;;;;;5088497;28;20451;-59
2021/06/27 07:23:22;;;;;;;13.37;12.60;;;38.20;55.50;;;;;;5088845;28;20524;-60
2021/06/27 07:25:49;;;;;;;13.27;12.57;;;37.70;55.40;;;;;;5089491;28;20474;-59
2021/06/27 07:28:16;;;;;;;12.20;11.40;;;38.80;53.60;;;;;;5088555;28;20497;-59
2021/06/27 07:30:43;;;;;;;13.50;12.80;;;39.30;52.10;;;;;;5086998;28;20489;-61
2021/06/27 07:33:12;;;;;;;13.50;12.80;;;39.20;51.80;;;;;;5088758;28;20488;-60
2021/06/27 07:35:39;;;;;;;13.60;12.90;;;38.40;51.30;;;;;;5087305;28;20447;-60
2021/06/27 07:38:06;;;;;;;13.90;13.00;;;38.20;50.60;;;;;;5089541;28;20470;-60
2021/06/27 07:40:33;;;;;;;13.70;13.00;;;39.20;49.00;;;;;;5087896;28;20781;-60
2021/06/27 07:43:01;;;;;;;12.90;12.30;;;38.70;50.30;;;;;;5089450;28;20468;-60
2021/06/27 07:45:28;;;;;;;13.80;13.20;;;39.50;48.80;;;;;;5088736;28;20478;-61
2021/06/27 07:47:55;;;;;;;12.63;12.07;;;39.30;48.20;;;;;;5092043;28;20757;-61
2021/06/27 07:50:22;;;;;;;14.27;13.23;;;39.50;47.80;;;;;;5091569;28;20446;-62
2021/06/27 07:52:49;;;;;;;12.87;12.27;;;40.00;46.40;;;;;;5093457;28;20536;-62
2021/06/27 07:55:16;;;;;;;13.90;13.20;;;39.60;48.10;;;;;;5092185;28;20443;-59
2021/06/27 07:57:43;;;;;;;13.00;12.40;;;40.70;47.10;;;;;;5094109;28;20451;-61
2021/06/27 08:00:11;;;;;;;13.60;12.90;;;41.10;44.00;;;;;;5090990;28;20447;-60
2021/06/27 08:02:38;;;;;;;14.77;14.07;;;40.30;44.90;;;;;;5092135;28;20462;-59
2021/06/27 08:05:06;;;;;;;14.00;13.30;;;40.80;45.70;;;;;;5093127;28;20510;-60
2021/06/27 08:07:33;;;;;;;13.33;12.63;;;41.40;43.90;;;;;;5091791;28;20442;-59
2021/06/27 08:10:01;;;;;;;13.83;12.93;;;41.50;43.00;;;;;;5093570;28;20524;-60
2021/06/27 08:12:28;;;;;;;13.33;12.63;;;40.40;43.70;;;;;;5092830;28;20959;-60
2021/06/27 08:14:55;;;;;;;13.40;12.70;;;38.30;47.30;;;;;;5093125;28;20501;-61
2021/06/27 08:17:22;;;;;;;13.60;12.90;;;37.00;48.30;;;;;;5093718;28;20447;-60
2021/06/27 08:19:50;;;;;;;13.20;12.60;;;35.90;49.30;;;;;;5094650;28;20431;-60
2021/06/27 08:22:17;;;;;;;13.73;12.93;;;35.60;51.10;;;;;;5093522;28;20489;-63
2021/06/27 08:24:45;;;;;;;12.90;12.30;;;37.10;48.20;;;;;;5091115;28;21457;-62
2021/06/27 08:27:12;;;;;;;13.30;12.63;;;34.60;52.00;;;;;;5091133;28;20447;-61
2021/06/27 08:29:40;;;;;;;14.20;13.50;;;32.80;55.90;;;;;;5092169;28;20446;-61
2021/06/27 08:32:08;;;;;;;13.70;12.70;;;31.80;56.50;;;;;;5093120;28;20905;-61
2021/06/27 08:34:35;;;;;;;13.07;12.30;;;32.10;57.00;;;;;;5084035;28;20778;-61
2021/06/27 08:37:02;;;;;;;13.20;12.50;;;34.40;54.10;;;;;;5092637;28;20457;-61
2021/06/27 08:39:29;;;;;;;13.07;12.40;;;36.60;48.30;;;;;;5090480;28;20447;-61
2021/06/27 08:41:56;;;;;;;13.27;12.63;;;36.70;47.90;;;;;;5090693;28;20467;-60
2021/06/27 08:44:24;;;;;;;12.50;11.90;;;37.30;47.20;;;;;;5097752;28;20508;-62
2021/06/27 08:46:52;;;;;;;13.00;12.40;;;36.00;48.90;;;;;;5098928;28;20437;-60
2021/06/27 08:49:24;;;;;;;12.60;12.00;;;35.40;49.70;;;;;;5100042;28;20633;-60
2021/06/27 08:51:51;;;;;;;13.37;12.77;;;37.00;48.10;;;;;;5097441;28;20446;-60
2021/06/27 08:54:19;;;;;;;12.70;12.10;;;39.10;41.90;;;;;;5098775;28;20831;-61
2021/06/27 08:56:46;;;;;;;12.87;12.27;;;39.30;42.80;;;;;;5098275;28;20765;-61
2021/06/27 08:59:13;;;;;;;13.23;12.63;;;39.90;42.10;;;;;;5092702;28;20455;-61
2021/06/27 09:01:40;;;;;;;13.33;12.70;;;40.00;42.00;;;;;;5092206;28;20856;-61
2021/06/27 09:04:07;;;;;;;11.87;11.37;;;39.80;42.10;;;;;;5097070;28;20654;-62
2021/06/27 09:06:37;;;;;;;12.83;12.23;;;38.90;43.30;;;;;;5082225;28;20494;-61
2021/06/27 09:09:11;;;;;;;12.90;12.10;;;37.80;44.10;;;;;;5083979;28;20447;-61
2021/06/27 09:11:40;;;;;;;11.27;10.70;;;37.90;45.60;;;;;;5083318;28;20432;-61
2021/06/27 09:14:38;;;;;;;11.60;11.07;;;37.90;44.20;;;;;;5094578;28;20654;-62
2021/06/27 09:17:11;;;;;;;11.87;11.27;;;37.10;43.90;;;;;;5098747;28;20500;-60
2021/06/27 09:19:53;;;;;;;12.63;12.03;;;35.20;47.10;;;;;;5095787;28;20444;-59
2021/06/27 09:22:26;;;;;;;11.67;11.07;;;36.70;46.40;;;;;;5097616;28;20447;-59
2021/06/27 09:25:17;;;;;;;12.40;11.80;;;38.20;44.50;;;;;;5093559;28;20635;-60
2021/06/27 09:27:45;;;;;;;12.60;11.77;;;39.00;43.20;;;;;;5097196;28;20423;-62
2021/06/27 09:30:21;;;;;;;11.90;11.30;;;40.40;39.30;;;;;;5078885;28;20750;-59
2021/06/27 09:32:51;;;;;;;13.27;12.60;;;38.40;42.10;;;;;;5095720;28;20492;-60
2021/06/27 09:35:50;;;;;;;11.90;11.40;;;35.50;46.20;;;;;;5088570;28;20443;-60
2021/06/27 09:38:38;;;;;;;11.20;10.67;;;31.70;51.40;;;;;;5072474;28;20447;-60
2021/06/27 09:41:23;;;;;;;10.73;10.17;;;29.60;56.40;;;;;;5082589;28;20428;-61
2021/06/27 09:43:54;;;;;;;10.67;10.07;;;28.60;58.30;;;;;;5098781;28;20484;-61
2021/06/27 09:46:33;;;;;;;10.20;9.70;;;28.20;58.10;;;;;;5098846;28;20482;-62
2021/06/27 09:49:06;;;;;;;10.00;9.50;;;28.00;59.80;;;;;;5099092;28;20427;-61
2021/06/27 09:51:38;;;;;;;10.30;9.80;;;28.00;59.30;;;;;;5094038;28;20526;-61
2021/06/27 09:54:16;;;;;;;10.43;9.73;;;27.90;59.00;;;;;;5077747;28;20762;-61
2021/06/27 09:56:45;;;;;;;10.10;9.50;;;27.60;60.30;;;;;;5092377;28;20439;-61
2021/06/27 09:59:17;;;;;;;10.60;10.00;;;27.70;60.20;;;;;;5094898;28;20521;-60
2021/06/27 10:01:45;;;;;;;10.57;10.07;;;28.10;59.80;;;;;;5096640;28;20450;-60
2021/06/27 10:04:15;;;;;;;11.37;10.73;;;28.50;58.60;;;;;;5095615;28;20443;-60
2021/06/27 10:06:52;;;;;;;10.77;10.17;;;28.90;57.50;;;;;;5097381;28;20443;-61
2021/06/27 10:09:21;;;;;;;9.80;9.30;;;29.10;56.60;;;;;;5094877;28;20457;-61
2021/06/27 10:12:01;;;;;;;10.07;9.37;;;28.90;56.80;;;;;;5085646;28;20707;-60
2021/06/27 10:14:34;;;;;;;9.90;9.50;;;28.60;58.00;;;;;;5084025;28;20443;-60
2021/06/27 10:17:04;;;;;;;9.97;9.43;;;28.50;58.60;;;;;;5098305;28;20449;-61
2021/06/27 10:19:32;;;;;;;9.13;8.73;;;28.50;58.10;;;;;;5097238;28;20447;-60
2021/06/27 10:22:01;;;;;;;9.93;9.43;;;28.30;60.10;;;;;;5090102;28;20459;-60
2021/06/27 10:24:30;;;;;;;9.57;9.03;;;28.50;59.30;;;;;;5097094;28;20535;-60
2021/06/27 10:27:04;;;;;;;10.17;9.63;;;28.80;58.80;;;;;;5097100;28;20716;-61
2021/06/27 10:29:32;;;;;;;9.93;9.30;;;29.10;57.30;;;;;;5097595;28;20446;-61
2021/06/27 10:31:59;;;;;;;9.87;9.30;;;29.30;55.80;;;;;;5092954;28;20834;-61
2021/06/27 10:34:26;;;;;;;10.00;9.50;;;29.20;56.60;;;;;;5080716;28;21479;-60
2021/06/27 10:36:56;;;;;;;9.17;8.70;;;29.10;57.00;;;;;;5093842;28;20907;-60
2021/06/27 10:39:24;;;;;;;9.63;9.20;;;29.30;56.20;;;;;;5095443;28;20634;-60
2021/06/27 10:41:56;;;;;;;9.50;8.90;;;29.20;54.00;;;;;;5088236;28;20443;-61
2021/06/27 10:44:45;;;;;;;9.03;8.57;;;28.50;55.30;;;;;;5086487;28;20439;-60
2021/06/27 10:47:30;;;;;;;9.07;8.57;;;27.90;55.20;;;;;;5079787;28;20502;-60
2021/06/27 10:49:59;;;;;;;10.67;9.90;;;27.50;57.80;;;;;;5095590;28;20800;-61
2021/06/27 10:52:29;;;;;;;9.10;8.47;;;27.40;57.90;;;;;;5081599;28;21075;-60
2021/06/27 10:55:18;;;;;;;9.40;8.90;;;27.50;58.90;;;;;;5081877;28;20482;-61
2021/06/27 10:57:56;;;;;;;9.33;8.90;;;28.00;58.10;;;;;;5091682;28;20672;-61
2021/06/27 11:00:27;;;;;;;9.27;8.87;;;27.90;55.10;;;;;;5087493;28;20510;-61
2021/06/27 11:03:15;;;;;;;9.70;9.30;;;28.00;56.50;;;;;;5091382;28;20438;-62
2021/06/27 11:05:43;;;;;;;9.47;8.97;;;28.10;55.80;;;;;;5095325;28;20478;-62
2021/06/27 11:08:12;;;;;;;10.13;9.53;;;28.10;56.40;;;;;;5095975;28;20436;-62
2021/06/27 11:10:39;;;;;;;10.50;9.80;;;27.90;57.60;;;;;;5094831;28;20540;-60
2021/06/27 11:13:09;;;;;;;9.53;9.07;;;27.60;58.50;;;;;;5094565;28;20418;-62
2021/06/27 11:16:02;;;;;;;10.53;10.03;;;27.00;59.00;;;;;;5095403;28;20471;-61
2021/06/27 11:18:31;;;;;;;9.43;8.93;;;27.00;58.90;;;;;;5092965;28;20420;-61
2021/06/27 11:20:59;;;;;;;10.17;9.67;;;27.00;59.40;;;;;;5092495;28;20529;-61
2021/06/27 11:23:45;;;;;;;9.53;9.03;;;26.70;58.70;;;;;;5100480;28;20539;-61
2021/06/27 11:26:50;;;;;;;9.57;8.97;;;26.60;60.10;;;;;;5090357;28;20544;-61
2021/06/27 11:29:20;;;;;;;9.97;9.47;;;26.70;60.00;;;;;;5093521;28;20442;-61
2021/06/27 11:31:48;;;;;;;9.97;9.47;;;26.60;60.20;;;;;;5100156;28;20433;-62
2021/06/27 11:34:31;;;;;;;9.97;9.47;;;26.20;59.10;;;;;;5093969;28;20545;-61
2021/06/27 11:37:18;;;;;;;9.73;9.23;;;26.40;60.20;;;;;;5099078;28;20438;-62
2021/06/27 11:39:47;;;;;;;9.80;9.30;;;26.60;59.00;;;;;;5100708;28;20484;-62
2021/06/27 11:42:29;;;;;;;9.23;8.83;;;26.70;57.20;;;;;;5100825;28;20411;-61
2021/06/27 11:45:06;;;;;;;10.27;9.50;;;27.00;58.40;;;;;;5100539;28;20439;-62
2021/06/27 11:47:33;;;;;;;9.60;9.10;;;26.90;57.00;;;;;;5100828;28;20506;-61
2021/06/27 11:50:22;;;;;;;8.93;8.23;;;26.70;58.70;;;;;;5088941;28;20451;-61
2021/06/27 11:53:00;;;;;;;9.90;9.40;;;26.60;58.70;;;;;;5099915;28;20494;-62
2021/06/27 11:55:31;;;;;;;9.10;8.60;;;26.40;59.40;;;;;;5099132;28;20443;-62
2021/06/27 11:57:59;;;;;;;9.13;8.67;;;26.40;58.70;;;;;;5098432;28;20496;-61
2021/06/27 12:00:41;;;;;;;10.03;9.47;;;26.40;57.80;;;;;;5099852;28;20478;-61
2021/06/27 12:03:11;;;;;;;9.53;9.03;;;26.40;58.80;;;;;;5098609;28;20443;-61
2021/06/27 12:05:39;;;;;;;9.70;9.20;;;26.60;57.80;;;;;;5097286;28;21056;-61
2021/06/27 12:08:08;;;;;;;9.77;9.27;;;26.90;58.80;;;;;;5096981;28;20442;-61
2021/06/27 12:10:37;;;;;;;10.10;9.47;;;26.90;57.90;;;;;;5100361;28;20449;-61
2021/06/27 12:13:09;;;;;;;9.40;9.00;;;26.70;57.70;;;;;;5098435;28;20430;-61
2021/06/27 12:15:41;;;;;;;9.17;8.77;;;26.80;58.90;;;;;;5097354;28;20448;-61
2021/06/27 12:18:10;;;;;;;8.63;8.13;;;26.90;59.50;;;;;;5090540;28;20440;-62
2021/06/27 12:20:46;;;;;;;9.60;9.00;;;27.10;58.60;;;;;;5087562;28;20791;-61
2021/06/27 12:23:17;;;;;;;10.60;9.43;;;27.30;57.70;;;;;;5096989;28;20467;-61
2021/06/27 12:25:47;;;;;;;8.90;8.50;;;27.40;58.40;;;;;;5097816;28;21198;-61
2021/06/27 12:28:18;;;;;;;9.67;9.17;;;27.10;56.30;;;;;;5098094;28;20474;-60
2021/06/27 12:30:54;;;;;;;10.40;9.80;;;26.90;57.50;;;;;;5087502;28;20439;-61
2021/06/27 12:33:37;;;;;;;8.30;7.90;;;26.60;57.50;;;;;;5088935;28;20784;-60
2021/06/27 12:36:11;;;;;;;9.23;8.73;;;26.80;58.40;;;;;;5081378;28;20443;-60
2021/06/27 12:38:41;;;;;;;9.60;9.10;;;27.20;57.40;;;;;;5098729;28;20813;-61
2021/06/27 12:41:10;;;;;;;8.47;8.07;;;27.60;56.30;;;;;;5093914;28;20449;-62
2021/06/27 12:43:43;;;;;;;10.00;9.40;;;27.30;55.10;;;;;;5090096;28;20462;-60